sensor_id;sensor_type;location;lat;lon;timestamp;pressure;altitude;pressure_sealevel;temperature;humidity
14120;BME280;7138;49.246;9.100;2023-07-24T00:01:39;97950.84;;;21.10;88.26
14120;BME280;7138;49.246;9.100;2023-07-24T00:04:05;97962.16;;;21.12;88.04
14120;BME280;7138;49.246;9.100;2023-07-24T00:06:31;97959.41;;;21.14;88.51
14120;BME280;7138;49.246;9.100;2023-07-24T00:08:57;97975.78;;;21.19;88.21
14120;BME280;7138;49.246;9.100;2023-07-24T00:11:22;97974.97;;;21.18;88.32
14120;BME280;7138;49.246;9.100;2023-07-24T00:13:48;97972.22;;;21.20;88.17
14120;BME280;7138;49.246;9.100;2023-07-24T00:16:14;97961.72;;;21.20;87.68
14120;BME280;7138;49.246;9.100;2023-07-24T00:18:41;97961.72;;;21.20;88.28
14120;BME280;7138;49.246;9.100;2023-07-24T00:21:07;97951.13;;;21.21;88.21
14120;BME280;7138;49.246;9.100;2023-07-24T00:23:33;97954.69;;;21.20;88.82
14120;BME280;7138;49.246;9.100;2023-07-24T00:25:59;97951.13;;;21.21;88.75
14120;BME280;7138;49.246;9.100;2023-07-24T00:28:24;97948.41;;;21.23;88.74
14120;BME280;7138;49.246;9.100;2023-07-24T00:30:50;97948.50;;;21.21;88.59
14120;BME280;7138;49.246;9.100;2023-07-24T00:33:16;97940.69;;;21.20;88.31
14120;BME280;7138;49.246;9.100;2023-07-24T00:35:43;97927.88;;;21.14;89.76
14120;BME280;7138;49.246;9.100;2023-07-24T00:38:09;97936.97;;;21.07;89.54
14120;BME280;7138;49.246;9.100;2023-07-24T00:40:35;97933.88;;;21.00;89.95
14120;BME280;7138;49.246;9.100;2023-07-24T00:43:00;97929.69;;;20.96;89.96
14120;BME280;7138;49.246;9.100;2023-07-24T00:45:26;97940.28;;;20.95;90.31
14120;BME280;7138;49.246;9.100;2023-07-24T00:47:52;97940.38;;;20.93;90.18
14120;BME280;7138;49.246;9.100;2023-07-24T00:50:19;97943.19;;;20.90;90.12
14120;BME280;7138;49.246;9.100;2023-07-24T00:52:47;97940.44;;;20.92;90.28
14120;BME280;7138;49.246;9.100;2023-07-24T00:55:14;97932.72;;;20.89;90.40
14120;BME280;7138;49.246;9.100;2023-07-24T00:57:43;97930.28;;;20.86;91.03
14120;BME280;7138;49.246;9.100;2023-07-24T01:00:11;97930.44;;;20.83;90.83
14120;BME280;7138;49.246;9.100;2023-07-24T01:02:37;97925.44;;;20.78;91.04
14120;BME280;7138;49.246;9.100;2023-07-24T01:05:05;97929.09;;;20.76;90.89
14120;BME280;7138;49.246;9.100;2023-07-24T01:07:31;97924.59;;;20.78;90.60
14120;BME280;7138;49.246;9.100;2023-07-24T01:09:59;97914.19;;;20.76;90.79
14120;BME280;7138;49.246;9.100;2023-07-24T01:12:32;97908.22;;;20.73;90.89
14120;BME280;7138;49.246;9.100;2023-07-24T01:15:08;97904.00;;;20.70;90.76
14120;BME280;7138;49.246;9.100;2023-07-24T01:17:39;97897.88;;;20.69;91.13
14120;BME280;7138;49.246;9.100;2023-07-24T01:20:11;97896.34;;;20.65;90.86
14120;BME280;7138;49.246;9.100;2023-07-24T01:22:46;97895.59;;;20.63;91.52
14120;BME280;7138;49.246;9.100;2023-07-24T01:25:26;97886.06;;;20.61;90.93
14120;BME280;7138;49.246;9.100;2023-07-24T01:27:55;97882.78;;;20.57;91.03
14120;BME280;7138;49.246;9.100;2023-07-24T01:30:21;97870.56;;;20.56;91.01
14120;BME280;7138;49.246;9.100;2023-07-24T01:32:48;97863.63;;;20.55;90.92
14120;BME280;7138;49.246;9.100;2023-07-24T01:35:15;97856.75;;;20.53;90.83
14120;BME280;7138;49.246;9.100;2023-07-24T01:37:42;97868.19;;;20.52;90.91
14120;BME280;7138;49.246;9.100;2023-07-24T01:40:10;97861.47;;;20.46;90.38
14120;BME280;7138;49.246;9.100;2023-07-24T01:42:37;97859.97;;;20.42;90.82
14120;BME280;7138;49.246;9.100;2023-07-24T01:45:06;97865.38;;;20.39;90.88
14120;BME280;7138;49.246;9.100;2023-07-24T01:47:32;97871.72;;;20.35;90.25
14120;BME280;7138;49.246;9.100;2023-07-24T01:49:58;97864.88;;;20.33;90.75
14120;BME280;7138;49.246;9.100;2023-07-24T01:52:25;97873.59;;;20.33;91.11
14120;BME280;7138;49.246;9.100;2023-07-24T01:54:51;97872.81;;;20.31;91.20
14120;BME280;7138;49.246;9.100;2023-07-24T01:57:16;97874.69;;;20.29;91.23
14120;BME280;7138;49.246;9.100;2023-07-24T01:59:42;97870.47;;;20.25;91.34
14120;BME280;7138;49.246;9.100;2023-07-24T02:02:11;97877.59;;;20.23;92.13
14120;BME280;7138;49.246;9.100;2023-07-24T02:04:37;97886.38;;;20.22;92.60
14120;BME280;7138;49.246;9.100;2023-07-24T02:07:04;97882.09;;;20.21;92.33
14120;BME280;7138;49.246;9.100;2023-07-24T02:09:30;97875.28;;;20.17;91.91
14120;BME280;7138;49.246;9.100;2023-07-24T02:11:56;97873.41;;;20.19;92.28
14120;BME280;7138;49.246;9.100;2023-07-24T02:14:22;97876.03;;;20.19;92.61
14120;BME280;7138;49.246;9.100;2023-07-24T02:16:47;97882.91;;;20.22;92.38
14120;BME280;7138;49.246;9.100;2023-07-24T02:19:15;97882.00;;;20.23;92.28
14120;BME280;7138;49.246;9.100;2023-07-24T02:21:40;97875.13;;;20.20;92.39
14120;BME280;7138;49.246;9.100;2023-07-24T02:24:06;97867.25;;;20.20;92.20
14120;BME280;7138;49.246;9.100;2023-07-24T02:26:32;97875.28;;;20.17;92.13
14120;BME280;7138;49.246;9.100;2023-07-24T02:28:58;97874.38;;;20.18;91.76
14120;BME280;7138;49.246;9.100;2023-07-24T02:31:25;97870.94;;;20.16;91.68
14120;BME280;7138;49.246;9.100;2023-07-24T02:33:51;97863.16;;;20.14;91.60
14120;BME280;7138;49.246;9.100;2023-07-24T02:36:18;97861.56;;;20.12;92.00
14120;BME280;7138;49.246;9.100;2023-07-24T02:38:44;97860.88;;;20.08;92.31
14120;BME280;7138;49.246;9.100;2023-07-24T02:41:13;97859.25;;;20.06;91.92
14120;BME280;7138;49.246;9.100;2023-07-24T02:43:39;97861.09;;;20.04;91.81
14120;BME280;7138;49.246;9.100;2023-07-24T02:46:05;97854.16;;;20.03;92.29
14120;BME280;7138;49.246;9.100;2023-07-24T02:48:30;97857.72;;;20.02;92.26
14120;BME280;7138;49.246;9.100;2023-07-24T02:50:56;97848.13;;;20.01;92.37
14120;BME280;7138;49.246;9.100;2023-07-24T02:53:24;97838.41;;;20.03;92.38
14120;BME280;7138;49.246;9.100;2023-07-24T02:55:50;97841.97;;;20.02;92.72
14120;BME280;7138;49.246;9.100;2023-07-24T02:58:16;97848.13;;;20.01;92.69
14120;BME280;7138;49.246;9.100;2023-07-24T03:00:41;97841.97;;;20.02;92.63
14120;BME280;7138;49.246;9.100;2023-07-24T03:03:07;97843.72;;;20.01;92.42
14120;BME280;7138;49.246;9.100;2023-07-24T03:05:34;97849.84;;;20.02;92.83
14120;BME280;7138;49.246;9.100;2023-07-24T03:08:00;97859.41;;;20.03;92.83
14120;BME280;7138;49.246;9.100;2023-07-24T03:10:27;97849.69;;;20.05;93.11
14120;BME280;7138;49.246;9.100;2023-07-24T03:12:53;97846.28;;;20.03;92.88
14120;BME280;7138;49.246;9.100;2023-07-24T03:15:19;97844.66;;;20.00;93.07
14120;BME280;7138;49.246;9.100;2023-07-24T03:17:45;97824.13;;;19.91;93.26
14120;BME280;7138;49.246;9.100;2023-07-24T03:20:15;97822.84;;;20.00;93.45
14120;BME280;7138;49.246;9.100;2023-07-24T03:22:42;97824.59;;;19.99;93.55
14120;BME280;7138;49.246;9.100;2023-07-24T03:25:09;97821.13;;;19.99;94.10
14120;BME280;7138;49.246;9.100;2023-07-24T03:27:36;97812.41;;;19.98;94.03
14120;BME280;7138;49.246;9.100;2023-07-24T03:30:04;97806.22;;;19.99;93.87
14120;BME280;7138;49.246;9.100;2023-07-24T03:32:30;97812.16;;;20.03;93.98
14120;BME280;7138;49.246;9.100;2023-07-24T03:34:55;97816.56;;;20.02;94.24
14120;BME280;7138;49.246;9.100;2023-07-24T03:37:21;97820.97;;;20.02;94.22
14120;BME280;7138;49.246;9.100;2023-07-24T03:39:47;97810.47;;;20.02;94.12
14120;BME280;7138;49.246;9.100;2023-07-24T03:42:25;97804.31;;;20.03;93.78
14120;BME280;7138;49.246;9.100;2023-07-24T03:44:53;97806.28;;;19.98;93.12
14120;BME280;7138;49.246;9.100;2023-07-24T03:47:19;97802.16;;;19.94;93.51
14120;BME280;7138;49.246;9.100;2023-07-24T03:49:45;97806.63;;;19.92;93.72
14120;BME280;7138;49.246;9.100;2023-07-24T03:52:11;97807.63;;;19.89;93.85
14120;BME280;7138;49.246;9.100;2023-07-24T03:54:37;97817.38;;;19.87;94.47
14120;BME280;7138;49.246;9.100;2023-07-24T03:57:04;97816.53;;;19.87;94.34
14120;BME280;7138;49.246;9.100;2023-07-24T03:59:30;97817.44;;;19.86;95.06
14120;BME280;7138;49.246;9.100;2023-07-24T04:01:57;97833.03;;;19.89;95.10
14120;BME280;7138;49.246;9.100;2023-07-24T04:04:23;97824.44;;;19.85;95.13
14120;BME280;7138;49.246;9.100;2023-07-24T04:06:49;97824.44;;;19.85;94.99
14120;BME280;7138;49.246;9.100;2023-07-24T04:09:15;97831.41;;;19.86;95.61
14120;BME280;7138;49.246;9.100;2023-07-24T04:11:42;97831.34;;;19.88;95.52
14120;BME280;7138;49.246;9.100;2023-07-24T04:14:08;97830.25;;;19.92;95.08
14120;BME280;7138;49.246;9.100;2023-07-24T04:16:34;97812.66;;;19.94;95.03
14120;BME280;7138;49.246;9.100;2023-07-24T04:19:01;97823.16;;;19.94;95.35
14120;BME280;7138;49.246;9.100;2023-07-24T04:21:27;97819.56;;;19.95;94.99
14120;BME280;7138;49.246;9.100;2023-07-24T04:23:53;97814.97;;;20.00;94.71
14120;BME280;7138;49.246;9.100;2023-07-24T04:26:19;97804.31;;;20.03;95.38
14120;BME280;7138;49.246;9.100;2023-07-24T04:28:45;97792.84;;;20.04;95.14
14120;BME280;7138;49.246;9.100;2023-07-24T04:31:14;97801.41;;;20.07;95.54
14120;BME280;7138;49.246;9.100;2023-07-24T04:33:39;97794.22;;;20.11;95.32
14120;BME280;7138;49.246;9.100;2023-07-24T04:36:07;97787.91;;;20.15;95.53
14120;BME280;7138;49.246;9.100;2023-07-24T04:38:32;97786.03;;;20.17;95.91
14120;BME280;7138;49.246;9.100;2023-07-24T04:41:00;97783.91;;;20.24;94.98
14120;BME280;7138;49.246;9.100;2023-07-24T04:43:27;97774.13;;;20.27;95.13
14120;BME280;7138;49.246;9.100;2023-07-24T04:45:53;97781.75;;;20.32;95.27
14120;BME280;7138;49.246;9.100;2023-07-24T04:48:19;97785.91;;;20.36;95.67
14120;BME280;7138;49.246;9.100;2023-07-24T04:50:45;97775.31;;;20.37;95.17
14120;BME280;7138;49.246;9.100;2023-07-24T04:53:12;97768.97;;;20.41;95.50
14120;BME280;7138;49.246;9.100;2023-07-24T04:55:38;97772.28;;;20.45;95.65
14120;BME280;7138;49.246;9.100;2023-07-24T04:58:04;97772.09;;;20.48;95.29
14120;BME280;7138;49.246;9.100;2023-07-24T05:00:30;97769.38;;;20.49;95.61
14120;BME280;7138;49.246;9.100;2023-07-24T05:02:55;97766.41;;;20.55;95.16
14120;BME280;7138;49.246;9.100;2023-07-24T05:05:21;97764.81;;;20.53;94.83
14120;BME280;7138;49.246;9.100;2023-07-24T05:07:47;97757.69;;;20.55;95.15
14120;BME280;7138;49.246;9.100;2023-07-24T05:10:14;97758.19;;;20.61;95.13
14120;BME280;7138;49.246;9.100;2023-07-24T05:12:41;97754.47;;;20.65;94.66
14120;BME280;7138;49.246;9.100;2023-07-24T05:15:08;97765.56;;;20.70;95.27
14120;BME280;7138;49.246;9.100;2023-07-24T05:17:34;97759.97;;;20.77;95.26
14120;BME280;7138;49.246;9.100;2023-07-24T05:20:00;97751.91;;;20.80;94.45
14120;BME280;7138;49.246;9.100;2023-07-24T05:22:26;97741.22;;;20.83;94.69
14120;BME280;7138;49.246;9.100;2023-07-24T05:24:52;97745.38;;;20.87;94.56
14120;BME280;7138;49.246;9.100;2023-07-24T05:27:19;97732.41;;;20.84;95.48
14120;BME280;7138;49.246;9.100;2023-07-24T05:29:44;97745.53;;;20.84;95.76
14120;BME280;7138;49.246;9.100;2023-07-24T05:32:10;97750.91;;;20.82;96.13
14120;BME280;7138;49.246;9.100;2023-07-24T05:34:36;97756.16;;;20.82;95.69
14120;BME280;7138;49.246;9.100;2023-07-24T05:37:03;97757.84;;;20.83;95.97
14120;BME280;7138;49.246;9.100;2023-07-24T05:39:29;97767.59;;;20.81;95.64
14120;BME280;7138;49.246;9.100;2023-07-24T05:41:55;97765.81;;;20.82;95.58
14120;BME280;7138;49.246;9.100;2023-07-24T05:44:22;97766.66;;;20.82;96.16
14120;BME280;7138;49.246;9.100;2023-07-24T05:46:48;97779.63;;;20.85;96.21
14120;BME280;7138;49.246;9.100;2023-07-24T05:49:14;97781.25;;;20.88;96.19
14120;BME280;7138;49.246;9.100;2023-07-24T05:51:40;97779.34;;;20.90;96.89
14120;BME280;7138;49.246;9.100;2023-07-24T05:54:06;97786.31;;;20.91;96.55
14120;BME280;7138;49.246;9.100;2023-07-24T05:56:32;97790.63;;;20.92;96.34
14120;BME280;7138;49.246;9.100;2023-07-24T05:58:57;97793.44;;;20.89;96.20
14120;BME280;7138;49.246;9.100;2023-07-24T06:01:25;97787.25;;;20.90;95.78
14120;BME280;7138;49.246;9.100;2023-07-24T06:03:50;97791.59;;;20.91;95.36
14120;BME280;7138;49.246;9.100;2023-07-24T06:06:16;97786.16;;;20.94;96.08
14120;BME280;7138;49.246;9.100;2023-07-24T06:08:42;97789.53;;;20.96;94.74
14120;BME280;7138;49.246;9.100;2023-07-24T06:11:08;97788.59;;;20.97;94.85
14120;BME280;7138;49.246;9.100;2023-07-24T06:13:34;97791.06;;;21.00;94.64
14120;BME280;7138;49.246;9.100;2023-07-24T06:15:59;97794.25;;;21.05;93.66
14120;BME280;7138;49.246;9.100;2023-07-24T06:18:27;97803.53;;;21.12;92.76
14120;BME280;7138;49.246;9.100;2023-07-24T06:20:53;97813.69;;;21.18;93.15
14120;BME280;7138;49.246;9.100;2023-07-24T06:23:19;97803.69;;;21.24;94.31
14120;BME280;7138;49.246;9.100;2023-07-24T06:25:45;97798.81;;;21.33;94.48
14120;BME280;7138;49.246;9.100;2023-07-24T06:28:11;97795.06;;;21.37;95.03
14120;BME280;7138;49.246;9.100;2023-07-24T06:30:38;97801.66;;;21.44;95.18
14120;BME280;7138;49.246;9.100;2023-07-24T06:33:05;97800.44;;;21.49;94.67
14120;BME280;7138;49.246;9.100;2023-07-24T06:35:32;97785.31;;;21.53;94.36
14120;BME280;7138;49.246;9.100;2023-07-24T06:37:58;97787.78;;;21.56;94.11
14120;BME280;7138;49.246;9.100;2023-07-24T06:40:23;97804.16;;;21.61;94.37
14120;BME280;7138;49.246;9.100;2023-07-24T06:42:49;97800.31;;;21.66;93.78
14120;BME280;7138;49.246;9.100;2023-07-24T06:45:15;97799.94;;;21.72;94.30
14120;BME280;7138;49.246;9.100;2023-07-24T06:47:41;97798.91;;;21.75;94.09
14120;BME280;7138;49.246;9.100;2023-07-24T06:50:07;97794.13;;;21.82;93.60
14120;BME280;7138;49.246;9.100;2023-07-24T06:52:35;97791.19;;;21.86;91.92
14120;BME280;7138;49.246;9.100;2023-07-24T06:55:00;97788.34;;;21.91;92.34
14120;BME280;7138;49.246;9.100;2023-07-24T06:57:26;97784.28;;;21.99;92.96
14120;BME280;7138;49.246;9.100;2023-07-24T06:59:52;97773.31;;;22.07;91.73
14120;BME280;7138;49.246;9.100;2023-07-24T07:02:18;97773.66;;;22.15;89.95
14120;BME280;7138;49.246;9.100;2023-07-24T07:04:44;97774.88;;;22.23;89.36
14120;BME280;7138;49.246;9.100;2023-07-24T07:07:10;97766.41;;;22.32;88.68
14120;BME280;7138;49.246;9.100;2023-07-24T07:09:37;97769.19;;;22.44;88.50
14120;BME280;7138;49.246;9.100;2023-07-24T07:12:03;97756.19;;;22.55;87.49
14120;BME280;7138;49.246;9.100;2023-07-24T07:14:29;97765.13;;;22.66;87.86
14120;BME280;7138;49.246;9.100;2023-07-24T07:16:55;97760.78;;;22.79;86.95
14120;BME280;7138;49.246;9.100;2023-07-24T07:19:20;97756.38;;;22.93;86.92
14120;BME280;7138;49.246;9.100;2023-07-24T07:21:46;97764.44;;;23.04;86.48
14120;BME280;7138;49.246;9.100;2023-07-24T07:24:12;97771.56;;;23.16;85.81
14120;BME280;7138;49.246;9.100;2023-07-24T07:26:39;97771.88;;;23.24;85.58
14120;BME280;7138;49.246;9.100;2023-07-24T07:29:05;97779.38;;;23.30;85.34
14120;BME280;7138;49.246;9.100;2023-07-24T07:31:31;97780.75;;;23.35;85.40
14120;BME280;7138;49.246;9.100;2023-07-24T07:33:57;97776.16;;;23.39;85.72
14120;BME280;7138;49.246;9.100;2023-07-24T07:36:22;97786.31;;;23.45;86.22
14120;BME280;7138;49.246;9.100;2023-07-24T07:38:48;97788.44;;;23.53;85.54
14120;BME280;7138;49.246;9.100;2023-07-24T07:41:14;97800.38;;;23.58;85.56
14120;BME280;7138;49.246;9.100;2023-07-24T07:43:41;97801.09;;;23.60;84.95
14120;BME280;7138;49.246;9.100;2023-07-24T07:46:07;97810.72;;;23.61;84.25
14120;BME280;7138;49.246;9.100;2023-07-24T07:48:33;97799.13;;;23.64;84.49
14120;BME280;7138;49.246;9.100;2023-07-24T07:50:59;97797.31;;;23.64;84.17
14120;BME280;7138;49.246;9.100;2023-07-24T07:53:25;97792.91;;;23.65;84.06
14120;BME280;7138;49.246;9.100;2023-07-24T07:55:55;97799.97;;;23.64;84.75
14120;BME280;7138;49.246;9.100;2023-07-24T07:58:22;97793.19;;;23.60;84.78
14120;BME280;7138;49.246;9.100;2023-07-24T08:00:50;97796.78;;;23.59;85.32
14120;BME280;7138;49.246;9.100;2023-07-24T08:03:15;97808.38;;;23.57;85.30
14120;BME280;7138;49.246;9.100;2023-07-24T08:05:41;97812.00;;;23.56;85.62
14120;BME280;7138;49.246;9.100;2023-07-24T08:08:07;97829.50;;;23.57;86.20
14120;BME280;7138;49.246;9.100;2023-07-24T08:10:33;97832.16;;;23.57;87.21
14120;BME280;7138;49.246;9.100;2023-07-24T08:12:59;97844.41;;;23.58;87.56
14120;BME280;7138;49.246;9.100;2023-07-24T08:15:25;97860.34;;;23.56;86.58
14120;BME280;7138;49.246;9.100;2023-07-24T08:17:52;97863.81;;;23.57;86.57
14120;BME280;7138;49.246;9.100;2023-07-24T08:20:18;97851.69;;;23.54;88.11
14120;BME280;7138;49.246;9.100;2023-07-24T08:22:43;97874.50;;;23.55;88.54
14120;BME280;7138;49.246;9.100;2023-07-24T08:25:09;97880.19;;;23.49;89.88
14120;BME280;7138;49.246;9.100;2023-07-24T08:27:35;97870.97;;;23.42;90.92
14120;BME280;7138;49.246;9.100;2023-07-24T08:30:01;97835.66;;;23.30;91.29
14120;BME280;7138;49.246;9.100;2023-07-24T08:32:27;97831.13;;;23.06;93.37
14120;BME280;7138;49.246;9.100;2023-07-24T08:34:54;97820.50;;;22.93;95.30
14120;BME280;7138;49.246;9.100;2023-07-24T08:37:20;97826.50;;;22.82;96.44
14120;BME280;7138;49.246;9.100;2023-07-24T08:39:46;97814.09;;;22.70;97.18
14120;BME280;7138;49.246;9.100;2023-07-24T08:42:12;97811.22;;;22.59;99.03
14120;BME280;7138;49.246;9.100;2023-07-24T08:44:39;97807.84;;;22.57;100.00
14120;BME280;7138;49.246;9.100;2023-07-24T08:47:10;97797.50;;;22.54;100.00
14120;BME280;7138;49.246;9.100;2023-07-24T08:49:38;97797.69;;;22.51;100.00
14120;BME280;7138;49.246;9.100;2023-07-24T08:52:08;97789.44;;;22.43;99.28
14120;BME280;7138;49.246;9.100;2023-07-24T08:54:36;97784.91;;;22.45;100.00
14120;BME280;7138;49.246;9.100;2023-07-24T08:57:06;97785.84;;;22.44;99.91
14120;BME280;7138;49.246;9.100;2023-07-24T08:59:33;97782.47;;;22.42;98.83
14120;BME280;7138;49.246;9.100;2023-07-24T09:01:59;97783.31;;;22.43;99.73
14120;BME280;7138;49.246;9.100;2023-07-24T09:04:25;97780.78;;;22.41;100.00
14120;BME280;7138;49.246;9.100;2023-07-24T09:06:51;97771.94;;;22.42;100.00
14120;BME280;7138;49.246;9.100;2023-07-24T09:09:20;97767.41;;;22.44;100.00
14120;BME280;7138;49.246;9.100;2023-07-24T09:11:47;97784.72;;;22.48;100.00
14120;BME280;7138;49.246;9.100;2023-07-24T09:14:21;97782.75;;;22.52;100.00
14120;BME280;7138;49.246;9.100;2023-07-24T09:16:47;97779.06;;;22.54;100.00
14120;BME280;7138;49.246;9.100;2023-07-24T09:19:17;97781.31;;;22.60;100.00
14120;BME280;7138;49.246;9.100;2023-07-24T09:21:43;97771.50;;;22.62;100.00
14120;BME280;7138;49.246;9.100;2023-07-24T09:24:12;97759.19;;;22.63;100.00
14120;BME280;7138;49.246;9.100;2023-07-24T09:26:49;97763.03;;;22.71;100.00
14120;BME280;7138;49.246;9.100;2023-07-24T09:29:16;97769.34;;;22.69;100.00
14120;BME280;7138;49.246;9.100;2023-07-24T09:31:41;97770.66;;;22.76;100.00
14120;BME280;7138;49.246;9.100;2023-07-24T09:34:15;97769.22;;;22.84;100.00
14120;BME280;7138;49.246;9.100;2023-07-24T09:36:41;97760.78;;;22.92;100.00
14120;BME280;7138;49.246;9.100;2023-07-24T09:39:07;97768.47;;;23.09;100.00
14120;BME280;7138;49.246;9.100;2023-07-24T09:41:36;97763.47;;;23.31;100.00
14120;BME280;7138;49.246;9.100;2023-07-24T09:44:03;97750.44;;;23.55;100.00
14120;BME280;7138;49.246;9.100;2023-07-24T09:46:30;97768.19;;;23.78;100.00
14120;BME280;7138;49.246;9.100;2023-07-24T09:48:58;97763.19;;;23.99;100.00
14120;BME280;7138;49.246;9.100;2023-07-24T09:51:24;97774.31;;;24.17;100.00
14120;BME280;7138;49.246;9.100;2023-07-24T09:53:58;97760.84;;;24.32;100.00
14120;BME280;7138;49.246;9.100;2023-07-24T09:56:27;97765.16;;;24.46;99.90
14120;BME280;7138;49.246;9.100;2023-07-24T09:58:54;97776.97;;;24.53;96.50
14120;BME280;7138;49.246;9.100;2023-07-24T10:01:23;97779.00;;;24.62;97.59
14120;BME280;7138;49.246;9.100;2023-07-24T10:03:50;97781.19;;;24.68;96.75
14120;BME280;7138;49.246;9.100;2023-07-24T10:06:16;97786.25;;;24.71;96.88
14120;BME280;7138;49.246;9.100;2023-07-24T10:08:43;97793.22;;;24.72;97.19
14120;BME280;7138;49.246;9.100;2023-07-24T10:11:12;97785.50;;;24.69;95.65
14120;BME280;7138;49.246;9.100;2023-07-24T10:13:39;97779.81;;;24.63;95.82
14120;BME280;7138;49.246;9.100;2023-07-24T10:16:05;97790.16;;;24.66;96.09
14120;BME280;7138;49.246;9.100;2023-07-24T10:18:40;97794.53;;;24.54;94.29
14120;BME280;7138;49.246;9.100;2023-07-24T10:21:09;97787.03;;;24.48;95.66
14120;BME280;7138;49.246;9.100;2023-07-24T10:23:36;97787.25;;;24.45;95.50
14120;BME280;7138;49.246;9.100;2023-07-24T10:26:03;97786.53;;;24.43;96.54
14120;BME280;7138;49.246;9.100;2023-07-24T10:28:32;97783.13;;;24.41;96.69
14120;BME280;7138;49.246;9.100;2023-07-24T10:30:58;97790.34;;;24.39;96.16
14120;BME280;7138;49.246;9.100;2023-07-24T10:33:24;97789.06;;;24.32;94.05
14120;BME280;7138;49.246;9.100;2023-07-24T10:35:54;97782.44;;;24.26;95.20
14120;BME280;7138;49.246;9.100;2023-07-24T10:38:33;97789.94;;;24.20;95.90
14120;BME280;7138;49.246;9.100;2023-07-24T10:41:02;97790.38;;;24.14;96.16
14120;BME280;7138;49.246;9.100;2023-07-24T10:43:40;97783.41;;;24.13;96.41
14120;BME280;7138;49.246;9.100;2023-07-24T10:46:06;97787.09;;;24.10;97.30
14120;BME280;7138;49.246;9.100;2023-07-24T10:48:32;97780.88;;;24.11;96.84
14120;BME280;7138;49.246;9.100;2023-07-24T10:51:06;97769.22;;;24.14;97.73
14120;BME280;7138;49.246;9.100;2023-07-24T10:53:35;97761.63;;;24.09;97.64
14120;BME280;7138;49.246;9.100;2023-07-24T10:56:03;97758.97;;;24.09;98.40
14120;BME280;7138;49.246;9.100;2023-07-24T10:58:29;97770.47;;;24.08;98.09
14120;BME280;7138;49.246;9.100;2023-07-24T11:00:56;97768.06;;;24.05;99.41
14120;BME280;7138;49.246;9.100;2023-07-24T11:03:22;97775.34;;;24.02;99.59
14120;BME280;7138;49.246;9.100;2023-07-24T11:05:48;97780.84;;;23.99;99.29
14120;BME280;7138;49.246;9.100;2023-07-24T11:08:18;97786.47;;;23.94;99.44
14120;BME280;7138;49.246;9.100;2023-07-24T11:10:48;97786.34;;;23.83;99.69
14120;BME280;7138;49.246;9.100;2023-07-24T11:13:15;97777.47;;;23.84;100.00
14120;BME280;7138;49.246;9.100;2023-07-24T11:15:41;97776.44;;;23.74;100.00
14120;BME280;7138;49.246;9.100;2023-07-24T11:18:07;97775.78;;;23.70;100.00
14120;BME280;7138;49.246;9.100;2023-07-24T11:20:37;97769.44;;;23.60;100.00
14120;BME280;7138;49.246;9.100;2023-07-24T11:23:03;97767.75;;;23.47;100.00
14120;BME280;7138;49.246;9.100;2023-07-24T11:25:31;97762.19;;;23.37;100.00
14120;BME280;7138;49.246;9.100;2023-07-24T11:27:58;97754.13;;;23.40;100.00
14120;BME280;7138;49.246;9.100;2023-07-24T11:30:23;97743.63;;;23.38;100.00
14120;BME280;7138;49.246;9.100;2023-07-24T11:32:50;97739.22;;;23.39;100.00
14120;BME280;7138;49.246;9.100;2023-07-24T11:35:16;97727.19;;;23.48;100.00
14120;BME280;7138;49.246;9.100;2023-07-24T11:37:42;97713.47;;;23.55;100.00
14120;BME280;7138;49.246;9.100;2023-07-24T11:40:09;97713.28;;;23.58;100.00
14120;BME280;7138;49.246;9.100;2023-07-24T11:42:43;97705.13;;;23.61;100.00
14120;BME280;7138;49.246;9.100;2023-07-24T11:45:09;97708.00;;;23.58;100.00
14120;BME280;7138;49.246;9.100;2023-07-24T11:47:43;97724.97;;;23.67;100.00
14120;BME280;7138;49.246;9.100;2023-07-24T11:50:10;97727.19;;;23.73;100.00
14120;BME280;7138;49.246;9.100;2023-07-24T11:52:40;97727.41;;;23.82;100.00
14120;BME280;7138;49.246;9.100;2023-07-24T11:55:09;97706.28;;;23.82;100.00
14120;BME280;7138;49.246;9.100;2023-07-24T11:57:35;97705.44;;;23.94;100.00
14120;BME280;7138;49.246;9.100;2023-07-24T12:00:03;97702.97;;;24.04;100.00
14120;BME280;7138;49.246;9.100;2023-07-24T12:02:32;97716.94;;;24.19;100.00
14120;BME280;7138;49.246;9.100;2023-07-24T12:05:00;97714.34;;;24.30;100.00
14120;BME280;7138;49.246;9.100;2023-07-24T12:07:31;97720.25;;;24.46;100.00
14120;BME280;7138;49.246;9.100;2023-07-24T12:09:58;97710.06;;;24.53;100.00
14120;BME280;7138;49.246;9.100;2023-07-24T12:12:23;97719.63;;;24.66;100.00
14120;BME280;7138;49.246;9.100;2023-07-24T12:14:49;97711.38;;;24.71;99.94
14120;BME280;7138;49.246;9.100;2023-07-24T12:17:19;97703.59;;;24.80;98.44
14120;BME280;7138;49.246;9.100;2023-07-24T12:19:46;97712.69;;;24.89;97.43
14120;BME280;7138;49.246;9.100;2023-07-24T12:22:12;97720.25;;;24.93;97.81
14120;BME280;7138;49.246;9.100;2023-07-24T12:24:38;97724.59;;;24.94;96.93
14120;BME280;7138;49.246;9.100;2023-07-24T12:27:04;97707.56;;;24.98;98.10
14120;BME280;7138;49.246;9.100;2023-07-24T12:29:30;97711.53;;;25.04;96.15
14120;BME280;7138;49.246;9.100;2023-07-24T12:31:56;97712.75;;;25.11;95.69
14120;BME280;7138;49.246;9.100;2023-07-24T12:34:23;97720.00;;;25.20;94.21
14120;BME280;7138;49.246;9.100;2023-07-24T12:36:49;97720.38;;;25.27;94.74
14120;BME280;7138;49.246;9.100;2023-07-24T12:39:17;97704.41;;;25.28;93.09
14120;BME280;7138;49.246;9.100;2023-07-24T12:41:43;97689.84;;;25.34;93.79
14120;BME280;7138;49.246;9.100;2023-07-24T12:44:09;97690.47;;;25.37;93.17
14120;BME280;7138;49.246;9.100;2023-07-24T12:46:34;97684.09;;;25.40;94.52
14120;BME280;7138;49.246;9.100;2023-07-24T12:49:00;97683.63;;;25.46;94.00
14120;BME280;7138;49.246;9.100;2023-07-24T12:51:27;97681.38;;;25.52;94.18
14120;BME280;7138;49.246;9.100;2023-07-24T12:53:53;97681.25;;;25.54;91.71
14120;BME280;7138;49.246;9.100;2023-07-24T12:56:19;97677.59;;;25.44;85.80
14120;BME280;7138;49.246;9.100;2023-07-24T12:58:45;97678.88;;;25.27;85.20
14120;BME280;7138;49.246;9.100;2023-07-24T13:01:12;97678.25;;;25.24;85.27
14120;BME280;7138;49.246;9.100;2023-07-24T13:03:37;97677.47;;;25.34;86.31
14120;BME280;7138;49.246;9.100;2023-07-24T13:06:03;97672.41;;;25.42;83.87
14120;BME280;7138;49.246;9.100;2023-07-24T13:08:30;97671.50;;;25.54;84.04